createdAt,value
2023-04-21T00:04:50.318Z,44.20
2023-04-21T00:09:58.000Z,39.90
2023-04-21T00:15:06.077Z,40.70
2023-04-21T00:20:14.818Z,41.30
2023-04-21T00:25:23.183Z,46.90
2023-04-21T00:30:30.626Z,50.80
2023-04-21T00:35:39.018Z,48.30
2023-04-21T00:40:46.338Z,48.90
2023-04-21T00:45:53.627Z,45.20
2023-04-21T00:51:00.881Z,46.20
2023-04-21T00:56:08.859Z,51.90
2023-04-21T01:01:16.301Z,43.20
2023-04-21T01:06:24.270Z,48.00
2023-04-21T01:11:31.914Z,48.20
2023-04-21T01:16:40.105Z,40.20
2023-04-21T01:21:47.396Z,47.60
2023-04-21T01:26:54.807Z,48.40
2023-04-21T01:32:05.208Z,44.30
2023-04-21T01:37:14.462Z,39.90
2023-04-21T01:42:24.074Z,64.30
2023-04-21T01:47:31.452Z,46.60
2023-04-21T01:52:39.102Z,47.80
2023-04-21T01:57:46.652Z,48.90
2023-04-21T02:02:53.907Z,40.40
2023-04-21T02:08:03.220Z,46.70
2023-04-21T02:13:11.040Z,50.60
2023-04-21T02:18:20.438Z,47.70
2023-04-21T02:23:28.198Z,61.20
2023-04-21T02:28:35.754Z,46.80
2023-04-21T02:33:43.385Z,49.50
2023-04-21T02:38:52.897Z,46.10
2023-04-21T02:44:00.519Z,45.30
2023-04-21T02:49:08.603Z,122.10
2023-04-21T02:54:15.974Z,41.40
2023-04-21T02:59:23.388Z,50.30
2023-04-21T03:04:32.930Z,42.20
2023-04-21T03:09:40.600Z,54.20
2023-04-21T03:14:48.119Z,50.10
2023-04-21T03:19:55.309Z,78.40
2023-04-21T03:25:02.929Z,53.70
2023-04-21T03:30:14.275Z,51.90
2023-04-21T03:38:10.019Z,48.40
2023-04-21T03:43:17.119Z,52.60
2023-04-21T03:53:29.771Z,55.30
2023-04-21T04:03:43.026Z,49.40
2023-04-21T04:08:50.507Z,54.20
2023-04-21T04:13:58.122Z,48.50
2023-04-21T04:19:05.186Z,51.30
2023-04-21T04:24:14.223Z,102.20
2023-04-21T04:29:22.002Z,54.90
2023-04-21T04:34:29.153Z,51.50
2023-04-21T04:44:42.717Z,49.20
2023-04-21T04:49:49.810Z,55.90
2023-04-21T04:54:57.084Z,116.10
2023-04-21T05:05:33.692Z,55.50
2023-04-21T05:10:41.006Z,73.60
2023-04-21T05:15:48.521Z,60.40
2023-04-21T05:20:56.929Z,67.90
2023-04-21T05:26:04.968Z,59.60
2023-04-21T05:31:12.607Z,60.40
2023-04-21T05:36:20.781Z,51.20
2023-04-21T05:41:28.312Z,53.60
2023-04-21T05:46:36.195Z,47.30
2023-04-21T05:51:44.416Z,50.70
2023-04-21T05:56:51.695Z,46.60
2023-04-21T06:01:59.547Z,146.10
2023-04-21T06:07:10.826Z,48.90
2023-04-21T06:12:18.706Z,54.20
2023-04-21T06:17:27.092Z,44.50
2023-04-21T06:22:34.148Z,39.90
2023-04-21T06:27:41.479Z,41.80
2023-04-21T06:32:49.383Z,44.00
2023-04-21T06:37:59.886Z,38.90
2023-04-21T06:43:07.714Z,38.90
2023-04-21T06:48:15.526Z,40.20
2023-04-21T06:53:23.151Z,28.40
2023-04-21T06:58:30.390Z,35.90
2023-04-21T07:03:38.323Z,35.80
2023-04-21T07:08:46.406Z,32.90
2023-04-21T07:13:53.867Z,31.40
2023-04-21T07:19:01.603Z,29.20
2023-04-21T07:24:10.432Z,27.80
2023-04-21T07:29:18.376Z,23.80
2023-04-21T07:34:26.068Z,30.60
2023-04-21T07:39:33.556Z,23.20
2023-04-21T07:44:41.262Z,31.60
2023-04-21T07:49:48.552Z,29.30
2023-04-21T07:54:56.270Z,42.10
2023-04-21T08:00:04.452Z,27.50
2023-04-21T08:05:12.668Z,28.40
2023-04-21T08:10:20.054Z,33.00
2023-04-21T08:15:27.592Z,29.50
2023-04-21T08:20:35.206Z,27.30
2023-04-21T08:25:42.896Z,29.40
2023-04-21T08:30:52.617Z,26.90
2023-04-21T08:36:07.391Z,25.40
2023-04-21T08:41:20.858Z,27.70
2023-04-21T08:46:31.135Z,29.00
2023-04-21T08:51:38.839Z,31.10
2023-04-21T08:56:46.171Z,23.90
2023-04-21T09:02:17.242Z,31.00
2023-04-21T09:07:44.437Z,27.20
2023-04-21T09:17:59.719Z,25.60
2023-04-21T09:23:09.346Z,32.00
2023-04-21T09:28:17.205Z,25.50
2023-04-21T09:33:30.992Z,24.70
2023-04-21T09:38:41.956Z,28.20
2023-04-21T09:43:49.702Z,26.90
2023-04-21T09:49:01.622Z,27.10
2023-04-21T09:54:28.206Z,27.00
2023-04-21T09:59:39.290Z,20.50
2023-04-21T10:04:47.423Z,17.70
2023-04-21T10:09:59.507Z,20.00
2023-04-21T10:15:39.348Z,16.30
2023-04-21T10:21:03.019Z,12.90
2023-04-21T10:26:13.562Z,11.90
2023-04-21T10:31:27.339Z,14.50
2023-04-21T10:36:36.253Z,17.10
2023-04-21T10:41:46.639Z,14.60
2023-04-21T10:46:55.198Z,12.70
2023-04-21T10:52:12.550Z,13.00
2023-04-21T10:57:21.541Z,13.20
2023-04-21T11:02:29.284Z,14.10
2023-04-21T11:07:37.179Z,15.20
2023-04-21T11:12:44.317Z,14.20
2023-04-21T11:17:52.900Z,14.60
2023-04-21T11:23:00.965Z,14.20
2023-04-21T11:28:09.091Z,13.70
2023-04-21T11:33:17.155Z,16.00
2023-04-21T11:38:27.367Z,16.70
2023-04-21T11:43:35.316Z,12.20
2023-04-21T11:48:42.661Z,13.30
2023-04-21T11:53:51.862Z,14.00
2023-04-21T11:58:59.322Z,11.90
2023-04-21T12:04:07.294Z,9.30
2023-04-21T12:09:21.104Z,12.50
2023-04-21T12:14:29.063Z,14.10
2023-04-21T12:19:42.621Z,10.50
2023-04-21T12:24:50.347Z,11.20
2023-04-21T12:29:58.309Z,11.10
2023-04-21T12:35:06.470Z,10.80
2023-04-21T12:40:14.725Z,12.10
2023-04-21T12:45:22.203Z,9.90
2023-04-21T12:50:29.849Z,11.00
2023-04-21T12:55:41.240Z,10.70
2023-04-21T13:00:50.394Z,9.80
2023-04-21T13:05:58.438Z,9.20
2023-04-21T13:11:06.637Z,10.60
2023-04-21T13:16:14.213Z,9.30
2023-04-21T13:21:21.716Z,10.10
2023-04-21T13:26:29.659Z,11.00
2023-04-21T13:31:37.661Z,8.40
2023-04-21T13:36:45.167Z,11.40
2023-04-21T13:41:54.101Z,10.10
2023-04-21T13:47:02.247Z,8.40
2023-04-21T13:52:10.003Z,10.70
2023-04-21T13:57:19.224Z,8.30
2023-04-21T14:02:27.040Z,9.80
2023-04-21T14:07:36.040Z,8.60
2023-04-21T14:12:45.238Z,10.20
2023-04-21T14:17:53.402Z,7.80
2023-04-21T14:23:00.937Z,7.40
2023-04-21T14:28:09.089Z,9.90
2023-04-21T14:33:17.198Z,10.20
2023-04-21T14:38:25.824Z,8.50
2023-04-21T14:43:33.474Z,11.30
2023-04-21T14:48:43.366Z,10.00
2023-04-21T14:53:50.831Z,8.60
2023-04-21T14:58:58.590Z,9.10
2023-04-21T15:04:06.813Z,9.40
2023-04-21T15:09:14.753Z,9.70
2023-04-21T15:14:22.148Z,7.90
2023-04-21T15:19:29.625Z,9.60
2023-04-21T15:24:38.012Z,12.30
2023-04-21T15:29:45.488Z,8.90
2023-04-21T15:34:52.976Z,8.40
2023-04-21T15:40:00.298Z,10.90
2023-04-21T15:45:09.347Z,11.20
2023-04-21T15:54:42.405Z,11.30
2023-04-21T15:59:49.722Z,10.40
2023-04-21T16:04:57.218Z,8.90
2023-04-21T16:10:04.560Z,6.30
2023-04-21T16:15:23.637Z,8.70
2023-04-21T16:20:32.014Z,9.90
2023-04-21T16:25:40.443Z,9.50
2023-04-21T16:30:48.519Z,9.60
2023-04-21T16:35:57.726Z,7.30
2023-04-21T16:41:06.992Z,6.80
2023-04-21T16:46:14.534Z,9.00
2023-04-21T16:51:22.037Z,8.70
2023-04-21T16:56:29.660Z,11.40
2023-04-21T17:01:36.888Z,10.80
2023-04-21T17:06:44.450Z,12.40
2023-04-21T17:11:51.665Z,10.60
2023-04-21T17:16:59.078Z,8.70
2023-04-21T17:22:06.583Z,9.20
2023-04-21T17:27:13.869Z,11.40
2023-04-21T17:32:21.596Z,9.70
2023-04-21T17:37:30.495Z,8.30
2023-04-21T17:42:37.947Z,9.00
2023-04-21T17:47:45.610Z,12.90
2023-04-21T17:52:53.379Z,11.10
2023-04-21T17:58:00.498Z,10.20
2023-04-21T18:03:08.071Z,20.50
2023-04-21T18:08:16.435Z,12.40
2023-04-21T18:13:23.817Z,16.60
2023-04-21T18:18:32.140Z,12.10
2023-04-21T18:23:39.388Z,15.20
2023-04-21T18:28:46.983Z,12.30
2023-04-21T18:33:54.364Z,13.90
2023-04-21T18:39:02.177Z,14.90
2023-04-21T18:44:09.824Z,14.00
2023-04-21T18:49:17.105Z,18.60
2023-04-21T18:54:24.525Z,12.00
2023-04-21T18:59:32.147Z,17.50
2023-04-21T19:04:39.895Z,16.50
2023-04-21T19:09:47.494Z,18.80
2023-04-21T19:14:54.748Z,16.00
2023-04-21T19:20:02.596Z,18.90
2023-04-21T19:25:12.160Z,18.20
2023-04-21T19:30:19.751Z,16.10
2023-04-21T19:35:28.124Z,18.30
2023-04-21T19:40:35.959Z,18.00
2023-04-21T19:45:43.324Z,22.80
2023-04-21T19:50:51.026Z,24.30
2023-04-21T19:55:58.425Z,22.50
2023-04-21T20:01:05.931Z,24.00
2023-04-21T20:06:13.650Z,25.80
2023-04-21T20:11:21.251Z,28.10
2023-04-21T20:16:29.284Z,24.60
2023-04-21T20:21:36.580Z,32.50
2023-04-21T20:26:43.831Z,31.00
2023-04-21T20:31:51.022Z,36.60
2023-04-21T20:36:58.438Z,42.00
2023-04-21T20:42:12.744Z,54.30
2023-04-21T20:47:22.115Z,54.30
2023-04-21T20:52:29.749Z,55.40
2023-04-21T20:57:36.931Z,68.70
2023-04-21T21:07:49.905Z,61.60
2023-04-21T21:12:58.328Z,58.50
2023-04-21T21:18:05.772Z,63.70
2023-04-21T21:23:13.138Z,59.60
2023-04-21T21:28:21.065Z,55.40
2023-04-21T21:33:28.368Z,64.80
2023-04-21T21:38:36.197Z,66.10
2023-04-21T21:43:43.460Z,53.90
2023-04-21T21:48:51.513Z,63.70
2023-04-21T21:53:58.616Z,60.50
2023-04-21T22:04:11.833Z,59.70
2023-04-21T22:09:19.608Z,62.90
2023-04-21T22:14:26.940Z,65.60
2023-04-21T22:19:34.232Z,68.00
2023-04-21T22:24:41.508Z,56.90
2023-04-21T22:34:54.394Z,56.20
2023-04-21T22:40:02.303Z,53.30
2023-04-21T22:45:11.763Z,64.10
2023-04-21T22:50:20.004Z,59.30
2023-04-21T22:55:27.192Z,68.60
2023-04-21T23:05:39.969Z,45.60
2023-04-21T23:10:47.775Z,63.70
2023-04-21T23:15:55.006Z,51.00
2023-04-21T23:26:07.857Z,55.20
2023-04-21T23:31:15.007Z,63.30
2023-04-21T23:41:28.757Z,51.60
2023-04-21T23:46:36.886Z,60.40
2023-04-21T23:51:44.269Z,52.80
